createdAt,value
2019-04-03T00:01:00.309Z,33.02
2019-04-03T00:03:28.575Z,32.73
2019-04-03T00:05:56.725Z,32.78
2019-04-03T00:08:24.996Z,32.88
2019-04-03T00:10:53.127Z,32.84
2019-04-03T00:13:21.436Z,33.04
2019-04-03T00:15:49.601Z,32.73
2019-04-03T00:18:17.804Z,33.24
2019-04-03T00:20:46.904Z,33.02
2019-04-03T00:23:15.758Z,33.03
2019-04-03T00:25:43.948Z,33.14
2019-04-03T00:28:12.133Z,33.06
2019-04-03T00:30:40.402Z,33.24
2019-04-03T00:33:08.562Z,33.22
2019-04-03T00:35:36.870Z,33.10
2019-04-03T00:38:05.022Z,33.13
2019-04-03T00:40:33.341Z,33.18
2019-04-03T00:43:01.530Z,33.15
2019-04-03T00:45:29.717Z,33.19
2019-04-03T00:47:57.909Z,33.16
2019-04-03T00:50:26.962Z,33.20
2019-04-03T00:52:57.052Z,33.09
2019-04-03T00:55:26.603Z,33.30
2019-04-03T00:57:56.520Z,33.17
2019-04-03T01:00:26.444Z,33.15
2019-04-03T01:02:55.033Z,33.24
2019-04-03T01:05:23.248Z,32.99
2019-04-03T01:07:51.460Z,33.11
2019-04-03T01:10:19.627Z,33.40
2019-04-03T01:12:47.767Z,33.46
2019-04-03T01:15:16.001Z,33.23
2019-04-03T01:17:44.187Z,33.39
2019-04-03T01:20:12.368Z,33.33
2019-04-03T01:22:40.551Z,33.28
2019-04-03T01:25:09.374Z,32.96
2019-04-03T01:27:37.751Z,33.31
2019-04-03T01:30:06.067Z,33.04
2019-04-03T01:32:34.291Z,33.26
2019-04-03T01:35:02.443Z,33.10
2019-04-03T01:37:30.707Z,33.32
2019-04-03T01:39:58.858Z,33.25
2019-04-03T01:42:27.029Z,33.22
2019-04-03T01:44:55.708Z,33.23
2019-04-03T01:47:24.344Z,33.14
2019-04-03T01:49:52.512Z,33.23
2019-04-03T01:52:20.716Z,33.27
2019-04-03T01:54:49.003Z,32.91
2019-04-03T01:57:17.254Z,33.19
2019-04-03T01:59:45.427Z,33.19
2019-04-03T02:02:13.576Z,33.42
2019-04-03T02:04:42.710Z,33.15
2019-04-03T02:07:11.104Z,33.01
2019-04-03T02:09:39.261Z,33.27
2019-04-03T02:12:07.497Z,33.32
2019-04-03T02:14:35.702Z,33.29
2019-04-03T02:17:03.878Z,32.95
2019-04-03T02:19:32.079Z,33.39
2019-04-03T02:22:00.253Z,33.24
2019-04-03T02:24:31.059Z,33.04
2019-04-03T02:26:58.257Z,33.47
2019-04-03T02:29:26.456Z,33.14
2019-04-03T02:31:54.924Z,33.00
2019-04-03T02:34:23.172Z,33.37
2019-04-03T02:36:51.360Z,33.34
2019-04-03T02:39:19.529Z,33.23
2019-04-03T02:41:47.747Z,32.97
2019-04-03T02:44:17.977Z,33.23
2019-04-03T02:46:45.792Z,33.23
2019-04-03T02:49:14.096Z,33.37
2019-04-03T02:51:42.206Z,33.50
2019-04-03T02:54:18.556Z,33.42
2019-04-03T02:56:46.942Z,33.49
2019-04-03T02:59:15.207Z,33.31
2019-04-03T03:01:43.382Z,33.09
2019-04-03T03:04:11.623Z,33.31
2019-04-03T03:06:39.993Z,33.66
2019-04-03T03:09:08.613Z,33.03
2019-04-03T03:11:36.832Z,33.45
2019-04-03T03:14:07.549Z,33.44
2019-04-03T03:16:34.844Z,33.54
2019-04-03T03:19:03.042Z,33.29
2019-04-03T03:21:31.617Z,33.43
2019-04-03T03:24:00.081Z,33.51
2019-04-03T03:26:28.603Z,33.43
2019-04-03T03:28:56.872Z,33.55
2019-04-03T03:31:56.420Z,33.55
2019-04-03T03:34:00.385Z,33.58
2019-04-03T03:36:26.345Z,33.84
2019-04-03T03:38:54.631Z,33.55
2019-04-03T03:41:24.397Z,33.64
2019-04-03T03:43:52.904Z,33.81
2019-04-03T03:46:21.348Z,33.40
2019-04-03T03:48:49.529Z,33.23
2019-04-03T03:51:17.737Z,33.63
2019-04-03T03:53:46.209Z,33.81
2019-04-03T03:56:15.020Z,33.61
2019-04-03T03:58:45.631Z,33.71
2019-04-03T04:01:13.148Z,33.75
2019-04-03T04:03:41.966Z,33.79
2019-04-03T04:06:10.594Z,33.75
2019-04-03T04:08:42.627Z,33.67
2019-04-03T04:11:08.925Z,33.74
2019-04-03T04:13:37.139Z,33.57
2019-04-03T04:16:05.534Z,33.86
2019-04-03T04:18:33.718Z,33.62
2019-04-03T04:21:01.915Z,33.56
2019-04-03T04:23:30.028Z,33.95
2019-04-03T04:26:00.540Z,33.86
2019-04-03T04:28:28.510Z,33.55
2019-04-03T04:30:57.721Z,33.83
2019-04-03T04:33:25.888Z,33.93
2019-04-03T04:35:54.080Z,33.92
2019-04-03T04:38:22.305Z,33.77
2019-04-03T04:40:50.505Z,33.45
2019-04-03T04:43:18.816Z,34.08
2019-04-03T04:45:47.036Z,34.23
2019-04-03T04:48:16.753Z,34.00
2019-04-03T04:50:45.126Z,34.08
2019-04-03T04:53:13.278Z,34.03
2019-04-03T04:55:41.500Z,33.90
2019-04-03T04:58:11.520Z,34.54
2019-04-03T05:00:39.884Z,34.11
2019-04-03T05:03:08.081Z,33.91
2019-04-03T05:05:36.254Z,33.94
2019-04-03T05:08:04.517Z,33.71
2019-04-03T05:10:32.909Z,34.38
2019-04-03T05:13:01.133Z,34.75
2019-04-03T05:15:29.423Z,33.68
2019-04-03T05:17:58.300Z,34.01
2019-04-03T05:20:26.598Z,33.85
2019-04-03T05:22:55.333Z,34.00
2019-04-03T05:25:23.957Z,33.96
2019-04-03T05:27:52.228Z,33.88
2019-04-03T05:30:26.821Z,34.70
2019-04-03T05:32:55.057Z,33.90
2019-04-03T05:35:23.394Z,33.97
2019-04-03T05:37:51.585Z,34.00
2019-04-03T05:40:19.726Z,34.12
2019-04-03T05:42:47.967Z,34.38
2019-04-03T05:45:16.157Z,33.86
2019-04-03T05:47:44.552Z,33.90
2019-04-03T05:50:13.036Z,33.85
2019-04-03T05:52:41.512Z,33.99
2019-04-03T05:55:10.211Z,33.70
2019-04-03T05:57:38.498Z,34.95
2019-04-03T06:00:07.516Z,34.01
2019-04-03T06:02:35.710Z,33.77
2019-04-03T06:05:06.356Z,33.87
2019-04-03T06:07:34.230Z,34.53
2019-04-03T06:10:02.806Z,34.28
2019-04-03T06:12:31.104Z,34.61
2019-04-03T06:14:59.237Z,34.33
2019-04-03T06:17:27.418Z,34.26
2019-04-03T06:19:55.629Z,34.52
2019-04-03T06:22:23.760Z,34.03
2019-04-03T06:24:55.833Z,34.63
2019-04-03T06:27:22.814Z,34.70
2019-04-03T06:29:54.712Z,34.16
2019-04-03T06:32:23.706Z,34.52
2019-04-03T06:34:50.548Z,34.44
2019-04-03T06:37:20.082Z,34.40
2019-04-03T06:39:48.467Z,34.33
2019-04-03T06:42:16.604Z,34.67
2019-04-03T06:44:44.817Z,34.46
2019-04-03T06:47:12.986Z,34.81
2019-04-03T06:49:41.224Z,34.12
2019-04-03T06:52:09.352Z,34.51
2019-04-03T06:54:37.551Z,34.87
2019-04-03T06:57:05.684Z,35.06
2019-04-03T06:59:33.850Z,34.82
2019-04-03T07:02:01.981Z,34.34
2019-04-03T07:04:30.270Z,34.92
2019-04-03T07:06:58.665Z,34.68
2019-04-03T07:09:35.212Z,35.17
2019-04-03T07:11:57.535Z,34.48
2019-04-03T07:14:26.824Z,34.88
2019-04-03T07:16:55.647Z,34.52
2019-04-03T07:19:23.869Z,34.20
2019-04-03T07:21:54.446Z,34.64
2019-04-03T07:24:22.010Z,34.64
2019-04-03T07:26:53.186Z,34.31
2019-04-03T07:29:21.324Z,34.41
2019-04-03T07:31:49.471Z,34.34
2019-04-03T07:34:17.648Z,34.50
2019-04-03T07:36:46.468Z,34.10
2019-04-03T07:39:17.024Z,34.68
2019-04-03T07:41:45.412Z,34.56
2019-04-03T07:44:13.549Z,34.08
2019-04-03T07:49:28.892Z,33.93
2019-04-03T07:51:57.047Z,34.33
2019-04-03T07:54:26.778Z,34.15
2019-04-03T07:56:57.426Z,34.41
2019-04-03T07:59:24.936Z,34.36
2019-04-03T08:01:53.104Z,34.57
2019-04-03T08:04:23.533Z,34.22
2019-04-03T08:06:51.120Z,34.44
2019-04-03T08:09:19.238Z,34.07
2019-04-03T08:12:06.632Z,34.37
2019-04-03T08:14:35.033Z,34.39
2019-04-03T08:17:04.606Z,33.88
2019-04-03T08:19:32.745Z,34.36
2019-04-03T08:22:01.894Z,33.99
2019-04-03T08:24:30.813Z,34.58
2019-04-03T08:26:59.316Z,34.19
2019-04-03T08:29:29.125Z,33.67
2019-04-03T08:31:59.076Z,33.60
2019-04-03T08:34:30.880Z,34.21
2019-04-03T08:37:01.255Z,34.27
2019-04-03T08:39:28.361Z,34.25
2019-04-03T08:41:57.910Z,34.40
2019-04-03T08:44:26.080Z,34.24
2019-04-03T08:46:54.243Z,34.23
2019-04-03T08:49:23.851Z,34.25
2019-04-03T08:51:52.378Z,34.16
2019-04-03T08:54:20.747Z,34.29
2019-04-03T08:56:49.487Z,34.22
2019-04-03T08:59:18.881Z,34.18
2019-04-03T09:01:47.042Z,33.42
2019-04-03T09:04:34.279Z,34.13
2019-04-03T09:09:49.651Z,34.23
2019-04-03T09:12:17.815Z,33.61
2019-04-03T09:14:46.281Z,33.94
2019-04-03T09:17:15.821Z,33.98
2019-04-03T09:19:44.005Z,34.15
2019-04-03T09:22:12.150Z,34.14
2019-04-03T09:24:40.278Z,33.86
2019-04-03T09:27:09.810Z,33.26
2019-04-03T09:29:38.524Z,33.93
2019-04-03T09:32:08.062Z,34.01
2019-04-03T09:34:36.238Z,33.84
2019-04-03T09:37:06.351Z,33.90
2019-04-03T09:39:34.193Z,34.01
2019-04-03T09:42:02.343Z,33.81
2019-04-03T09:44:30.906Z,33.61
2019-04-03T09:47:02.882Z,33.87
2019-04-03T09:49:30.111Z,33.91
2019-04-03T09:51:58.275Z,33.68
2019-04-03T09:54:28.362Z,33.70
2019-04-03T09:57:02.936Z,33.24
2019-04-03T09:59:26.039Z,33.57
2019-04-03T10:01:54.192Z,33.24
2019-04-03T10:04:22.375Z,33.60
2019-04-03T10:09:23.796Z,32.78
2019-04-03T10:11:52.541Z,33.56
2019-04-03T10:14:21.770Z,33.56
2019-04-03T10:16:49.945Z,33.47
2019-04-03T10:19:18.091Z,32.84
2019-04-03T10:21:46.396Z,33.77
2019-04-03T10:24:16.079Z,33.74
2019-04-03T10:26:44.230Z,33.08
2019-04-03T10:29:12.395Z,33.10
2019-04-03T10:31:40.555Z,33.64
2019-04-03T10:34:08.733Z,33.68
2019-04-03T10:36:36.897Z,33.00
2019-04-03T10:39:06.020Z,32.46
2019-04-03T10:41:34.171Z,33.55
2019-04-03T10:44:02.732Z,33.38
2019-04-03T10:46:32.166Z,32.69
2019-04-03T10:49:01.217Z,33.46
2019-04-03T10:51:31.712Z,33.65
2019-04-03T10:54:00.011Z,33.49
2019-04-03T10:56:30.760Z,33.33
2019-04-03T10:59:09.545Z,33.18
2019-04-03T11:01:27.997Z,33.52
2019-04-03T11:03:56.388Z,33.72
2019-04-03T11:06:24.537Z,33.52
2019-04-03T11:08:52.672Z,33.11
2019-04-03T11:11:20.817Z,33.26
2019-04-03T11:14:08.167Z,32.19
2019-04-03T11:16:38.643Z,31.76
2019-04-03T11:19:07.332Z,31.43
2019-04-03T11:21:36.474Z,32.39
2019-04-03T11:24:06.693Z,31.42
2019-04-03T11:26:36.103Z,33.02
2019-04-03T11:29:08.779Z,31.51
2019-04-03T11:31:41.181Z,33.39
2019-04-03T11:34:05.273Z,33.62
2019-04-03T11:36:52.503Z,33.65
2019-04-03T11:39:20.860Z,31.50
2019-04-03T11:41:48.975Z,32.08
2019-04-03T11:44:17.204Z,34.59
2019-04-03T11:46:46.892Z,34.23
2019-04-03T11:49:15.033Z,33.46
2019-04-03T11:51:43.162Z,34.34
2019-04-03T11:54:11.703Z,34.56
2019-04-03T11:56:41.565Z,34.91
2019-04-03T11:59:10.968Z,34.92
2019-04-03T12:01:39.209Z,34.77
2019-04-03T12:04:07.761Z,34.66
2019-04-03T12:06:36.421Z,34.79
2019-04-03T12:11:55.091Z,34.51
2019-04-03T12:14:23.690Z,34.93
2019-04-03T12:16:53.661Z,34.63
2019-04-03T12:19:23.109Z,33.33
2019-04-03T12:21:51.385Z,33.77
2019-04-03T12:24:19.702Z,33.20
2019-04-03T12:27:06.771Z,34.72
2019-04-03T12:29:54.486Z,34.70
2019-04-03T12:32:36.136Z,33.50
2019-04-03T12:34:54.268Z,34.57
2019-04-03T12:37:25.011Z,34.01
2019-04-03T12:39:53.511Z,34.46
2019-04-03T12:42:21.728Z,34.16
2019-04-03T12:44:49.902Z,34.15
2019-04-03T12:47:18.269Z,33.19
2019-04-03T12:49:48.054Z,33.60
2019-04-03T12:52:16.364Z,33.27
2019-04-03T12:54:44.578Z,33.88
2019-04-03T12:57:12.661Z,34.62
2019-04-03T12:59:40.876Z,34.48
2019-04-03T13:02:10.652Z,34.45
2019-04-03T13:04:38.809Z,33.14
2019-04-03T13:07:07.393Z,32.05
2019-04-03T13:09:38.082Z,33.10
2019-04-03T13:12:06.573Z,32.46
2019-04-03T13:14:34.746Z,33.04
2019-04-03T13:17:03.281Z,32.78
2019-04-03T13:19:31.858Z,34.15
2019-04-03T13:22:01.447Z,32.97
2019-04-03T13:24:29.601Z,33.97
2019-04-03T13:26:58.517Z,31.49
2019-04-03T13:29:27.545Z,32.56
2019-04-03T13:31:56.169Z,31.35
2019-04-03T13:34:25.556Z,32.48
2019-04-03T13:36:54.120Z,32.77
2019-04-03T13:39:22.247Z,32.31
2019-04-03T13:41:50.397Z,33.82
2019-04-03T13:44:18.747Z,32.80
2019-04-03T13:46:46.880Z,32.77
2019-04-03T13:49:17.150Z,31.63
2019-04-03T13:51:45.248Z,33.51
2019-04-03T13:54:13.694Z,33.61
2019-04-03T13:56:43.091Z,32.50
2019-04-03T13:59:11.889Z,34.02
2019-04-03T14:01:40.994Z,33.34
2019-04-03T14:04:09.697Z,32.93
2019-04-03T14:06:38.514Z,32.84
2019-04-03T14:09:07.437Z,34.56
2019-04-03T14:11:35.636Z,33.21
2019-04-03T14:14:03.774Z,33.83
2019-04-03T14:16:34.823Z,32.59
2019-04-03T14:19:01.736Z,33.97
2019-04-03T14:21:29.823Z,33.26
2019-04-03T14:23:58.098Z,33.17
2019-04-03T14:26:26.239Z,32.91
2019-04-03T14:28:54.322Z,33.63
2019-04-03T14:31:33.543Z,33.05
2019-04-03T14:33:52.276Z,34.06
2019-04-03T14:36:20.506Z,33.72
2019-04-03T14:38:48.636Z,33.39
2019-04-03T14:41:18.586Z,33.52
2019-04-03T14:43:46.571Z,34.08
2019-04-03T14:46:17.264Z,33.49
2019-04-03T14:48:44.892Z,33.50
2019-04-03T14:51:13.072Z,33.38
2019-04-03T14:53:41.230Z,33.07
2019-04-03T14:56:09.357Z,33.77
2019-04-03T14:58:37.484Z,32.73
2019-04-03T15:01:05.729Z,34.04
2019-04-03T15:03:34.549Z,34.32
2019-04-03T15:06:03.575Z,33.23
2019-04-03T15:08:31.779Z,32.55
2019-04-03T15:11:02.028Z,33.32
2019-04-03T15:13:29.787Z,33.66
2019-04-03T15:16:00.371Z,33.96
2019-04-03T15:18:27.973Z,33.20
2019-04-03T15:20:56.092Z,32.70
2019-04-03T15:23:24.561Z,33.73
2019-04-03T15:25:53.378Z,32.45
2019-04-03T15:28:21.907Z,32.03
2019-04-03T15:30:50.542Z,34.05
2019-04-03T15:33:18.732Z,34.11
2019-04-03T15:35:47.080Z,33.64
2019-04-03T15:38:17.966Z,33.34
2019-04-03T15:40:45.007Z,34.29
2019-04-03T15:43:16.015Z,33.71
2019-04-03T15:45:43.370Z,33.55
2019-04-03T15:48:11.687Z,34.30
2019-04-03T15:50:40.018Z,33.23
2019-04-03T15:53:08.201Z,33.25
2019-04-03T15:55:37.999Z,32.88
2019-04-03T15:58:06.172Z,33.65
2019-04-03T16:00:35.757Z,33.54
2019-04-03T16:03:07.186Z,34.03
2019-04-03T16:05:36.513Z,32.80
2019-04-03T16:08:05.660Z,33.75
2019-04-03T16:10:34.003Z,33.67
2019-04-03T16:13:02.173Z,33.75
2019-04-03T16:15:30.292Z,33.94
2019-04-03T16:17:58.952Z,33.02
2019-04-03T16:20:27.563Z,33.11
2019-04-03T16:22:56.184Z,32.60
2019-04-03T16:25:24.497Z,32.36
2019-04-03T16:27:52.617Z,32.93
2019-04-03T16:30:20.852Z,33.68
2019-04-03T16:32:49.600Z,32.83
2019-04-03T16:35:17.774Z,32.98
2019-04-03T16:37:45.933Z,33.59
2019-04-03T16:40:14.073Z,32.47
2019-04-03T16:42:43.234Z,32.76
2019-04-03T16:45:11.967Z,33.25
2019-04-03T16:47:40.261Z,33.71
2019-04-03T16:50:08.435Z,32.02
2019-04-03T16:52:37.817Z,31.48
2019-04-03T16:55:06.732Z,32.10
2019-04-03T16:57:34.970Z,31.56
2019-04-03T17:00:03.086Z,32.46
2019-04-03T17:02:31.207Z,32.31
2019-04-03T17:04:59.696Z,32.64
2019-04-03T17:07:27.838Z,32.43
2019-04-03T17:09:55.974Z,32.28
2019-04-03T17:12:24.091Z,31.76
2019-04-03T17:14:52.920Z,31.69
2019-04-03T17:17:22.067Z,32.72
2019-04-03T17:19:51.477Z,32.06
2019-04-03T17:22:20.003Z,32.60
2019-04-03T17:24:49.814Z,32.39
2019-04-03T17:27:18.033Z,32.16
2019-04-03T17:29:47.362Z,32.09
2019-04-03T17:32:15.927Z,31.75
2019-04-03T17:34:44.077Z,31.64
2019-04-03T17:37:12.383Z,32.30
2019-04-03T17:39:40.578Z,32.10
2019-04-03T17:42:09.192Z,31.82
2019-04-03T17:44:38.456Z,32.25
2019-04-03T17:47:06.719Z,32.14
2019-04-03T17:49:34.877Z,32.54
2019-04-03T17:52:04.949Z,32.57
2019-04-03T17:54:32.816Z,31.61
2019-04-03T17:57:00.985Z,32.76
2019-04-03T17:59:29.188Z,32.72
2019-04-03T18:01:57.407Z,32.84
2019-04-03T18:04:25.656Z,32.34
2019-04-03T18:06:53.890Z,33.23
2019-04-03T18:09:22.054Z,33.11
2019-04-03T18:11:50.186Z,33.12
2019-04-03T18:14:18.363Z,32.28
2019-04-03T18:16:46.505Z,32.74
2019-04-03T18:19:14.726Z,32.64
2019-04-03T18:21:42.892Z,32.25
2019-04-03T18:24:11.048Z,34.37
2019-04-03T18:26:39.253Z,32.62
2019-04-03T18:29:07.511Z,33.65
2019-04-03T18:31:35.630Z,33.42
2019-04-03T18:34:03.802Z,33.43
2019-04-03T18:36:31.939Z,32.48
2019-04-03T18:39:00.116Z,32.65
2019-04-03T18:41:28.267Z,31.88
2019-04-03T18:43:56.408Z,33.44
2019-04-03T18:46:32.049Z,33.10
2019-04-03T18:49:00.519Z,33.47
2019-04-03T18:51:24.215Z,33.62
2019-04-03T18:53:52.352Z,33.63
2019-04-03T18:56:20.575Z,33.33
2019-04-03T18:58:48.703Z,33.46
2019-04-03T19:01:17.187Z,33.43
2019-04-03T19:03:45.484Z,33.53
2019-04-03T19:06:14.067Z,33.67
2019-04-03T19:08:42.412Z,33.36
2019-04-03T19:11:10.656Z,33.26
2019-04-03T19:13:38.844Z,33.38
2019-04-03T19:16:08.507Z,33.49
2019-04-03T19:18:36.925Z,33.72
2019-04-03T19:21:05.137Z,33.43
2019-04-03T19:23:33.436Z,33.35
2019-04-03T19:26:01.579Z,33.14
2019-04-03T19:28:29.903Z,34.29
2019-04-03T19:30:58.060Z,33.59
2019-04-03T19:33:31.056Z,34.14
2019-04-03T19:35:59.346Z,33.68
2019-04-03T19:38:27.678Z,34.31
2019-04-03T19:40:55.875Z,34.66
2019-04-03T19:43:24.180Z,34.56
2019-04-03T19:45:52.423Z,34.18
2019-04-03T19:48:22.033Z,34.90
2019-04-03T19:50:50.249Z,34.46
2019-04-03T19:53:19.007Z,34.26
2019-04-03T19:55:47.181Z,34.81
2019-04-03T19:58:15.450Z,34.89
2019-04-03T20:00:43.716Z,34.23
2019-04-03T20:03:13.700Z,34.58
2019-04-03T20:05:44.051Z,34.50
2019-04-03T20:08:12.553Z,35.00
2019-04-03T20:10:40.689Z,34.52
2019-04-03T20:13:11.633Z,34.98
2019-04-03T20:15:39.807Z,35.08
2019-04-03T20:18:07.997Z,34.79
2019-04-03T20:20:36.174Z,34.95
2019-04-03T20:23:04.338Z,34.55
2019-04-03T20:25:32.525Z,34.66
2019-04-03T20:28:00.796Z,34.67
2019-04-03T20:30:28.945Z,35.04
2019-04-03T20:32:57.118Z,34.93
2019-04-03T20:35:25.324Z,34.16
2019-04-03T20:37:56.665Z,34.63
2019-04-03T20:40:23.304Z,34.76
2019-04-03T20:42:51.431Z,34.84
2019-04-03T20:45:19.760Z,34.80
2019-04-03T20:47:48.387Z,35.19
2019-04-03T20:50:16.523Z,34.87
2019-04-03T20:52:46.196Z,35.28
2019-04-03T20:55:14.581Z,33.50
2019-04-03T20:57:54.788Z,34.95
2019-04-03T21:00:12.555Z,34.34
2019-04-03T21:02:42.004Z,34.99
2019-04-03T21:05:10.621Z,34.51
2019-04-03T21:07:38.765Z,35.04
2019-04-03T21:10:07.074Z,34.99
2019-04-03T21:12:35.784Z,34.91
2019-04-03T21:15:08.871Z,34.18
2019-04-03T21:17:34.383Z,34.78
2019-04-03T21:20:02.561Z,35.28
2019-04-03T21:22:30.712Z,35.34
2019-04-03T21:24:58.900Z,35.00
2019-04-03T21:27:27.037Z,35.01
2019-04-03T21:29:58.033Z,34.62
2019-04-03T21:32:25.074Z,34.96
2019-04-03T21:34:53.237Z,34.53
2019-04-03T21:37:21.498Z,35.12
2019-04-03T21:39:49.685Z,35.54
2019-04-03T21:42:17.849Z,35.28
2019-04-03T21:44:46.061Z,35.28
2019-04-03T21:47:14.199Z,34.38
2019-04-03T21:49:42.429Z,34.43
2019-04-03T21:52:10.605Z,35.06
2019-04-03T21:54:38.737Z,34.83
2019-04-03T21:57:06.944Z,34.95
2019-04-03T21:59:35.100Z,35.19
2019-04-03T22:02:03.610Z,34.86
2019-04-03T22:04:31.764Z,34.97
2019-04-03T22:06:59.940Z,35.49
2019-04-03T22:09:30.417Z,35.55
2019-04-03T22:11:57.921Z,35.10
2019-04-03T22:14:26.091Z,34.85
2019-04-03T22:16:54.301Z,35.37
2019-04-03T22:19:22.521Z,35.46
2019-04-03T22:21:50.682Z,34.62
2019-04-03T22:24:18.864Z,35.16
2019-04-03T22:26:47.020Z,35.34
2019-04-03T22:29:15.212Z,35.14
2019-04-03T22:31:43.341Z,35.76
2019-04-03T22:34:11.514Z,35.47
2019-04-03T22:36:39.705Z,35.08
2019-04-03T22:39:08.797Z,35.59
2019-04-03T22:41:37.139Z,35.29
2019-04-03T22:44:05.336Z,34.96
2019-04-03T22:46:33.624Z,35.28
2019-04-03T22:49:01.781Z,35.35
2019-04-03T22:51:29.964Z,35.25
2019-04-03T22:53:58.132Z,35.34
2019-04-03T22:56:26.371Z,35.28
2019-04-03T22:58:54.554Z,35.11
2019-04-03T23:01:22.696Z,35.45
2019-04-03T23:03:50.860Z,35.71
2019-04-03T23:06:19.448Z,35.19
2019-04-03T23:08:47.655Z,35.40
2019-04-03T23:11:15.904Z,35.25
2019-04-03T23:13:44.146Z,35.44
2019-04-03T23:16:12.379Z,34.03
2019-04-03T23:18:40.592Z,35.65
2019-04-03T23:21:08.866Z,35.62
2019-04-03T23:23:37.054Z,35.17
2019-04-03T23:26:05.713Z,35.52
2019-04-03T23:28:34.642Z,35.56
2019-04-03T23:31:03.092Z,35.38
2019-04-03T23:33:31.422Z,35.67
2019-04-03T23:35:59.649Z,35.56
2019-04-03T23:38:27.918Z,35.78
2019-04-03T23:40:56.157Z,35.62
2019-04-03T23:43:24.439Z,35.68
2019-04-03T23:45:52.701Z,35.44
2019-04-03T23:48:20.899Z,35.35
2019-04-03T23:50:49.165Z,35.45
2019-04-03T23:53:17.363Z,35.12
2019-04-03T23:55:45.580Z,35.08
2019-04-03T23:58:13.815Z,35.53
